Hector, MN

6:39 PM CDT on September 21, 2014 (GMT -0500)
Olivia Regional | Change Station
CLOSE
Current Station
Airport
Location: Olivia,
Elevation: 1076 ft
Nearby Weather Stations

Elev 1076 ft 44.78 °N, 95.03 °W | Updated 5 minutes ago

Partly Cloudy
Partly Cloudy
61 °F
Feels Like 61 °F
N
7
Wind Variable Wind from NNW

Today
High -- | Low -- °F
--% Chance of Precip.
Yesterday
High -- | Low -- °F
Precip. -- in
7:04 AM 7:18 PM
Waning Crescent, 5% visible
Pressure 30.21 in
Visibility 10.0 miles
Clouds Scattered Clouds 3900 ft
Dew Point 50 °F
Humidity 68%
Rainfall 0.00 in
Snow Depth Not available.
UV 0 out of 12
Pollen 3.00 out of 12
Air Quality Not available.
Flu Activity Not available.
METAR KOVL 212334Z AUTO 34006KT 10SM SCT039 16/10 A3021 RMK AO2

More Conditions Fewer Conditions

Pressure 30.21 in
Visibility 10.0 miles
Clouds Scattered Clouds 3900 ft
Dew Point 50 °F
Humidity 68%
Rainfall 0.00 in
Snow Depth Not available.
UV 0 out of 12
Pollen 3.00 out of 12
Air Quality Not available.
Flu Activity Not available.
METAR KOVL 212334Z AUTO 34006KT 10SM SCT039 16/10 A3021 RMK AO2

More Conditions Fewer Conditions

10-Day Weather Forecast

Almanac

Astronomy

Sep. 21, 2014 Rise Set
Actual Time 7:04 AM CDT 7:18 PM CDT
Civil Twilight 6:35 AM CDT 7:47 PM CDT
Nautical Twilight 6:01 AM CDT 8:21 PM CDT
Astronomical Twilight 5:25 AM CDT 8:56 PM CDT
Moon 4:34 AM CDT 5:58 PM CDT
Length of Visible Light 13h 11m
Length of Day
12h 13m
Tomorrow will be 3m 4s shorter.
Waning Crescent, 5% of the Moon is Illuminated
Today
Waning Crescent
Sep 24
New
Oct 1
First Quarter
Oct 8
Full
Oct 15
Last Quarter

Today's Extremes

State Highs State Lows

Community

WunderPhotos

Upload Photos

1,755,292 photos uploaded!

WunderBlogs® & News

Nearby

Snow Depth

Station Depth Elevation
No new snow has been reported.

Earthquake Activity

City Distance Mag. Time & Date
No recent earthquake activity has been reported nearby.
Minimum magnitude displayed is 2.5.

Coastal Water Temperatures

Place Temperature
No Stations Reporting

Nearby Weather Stations